PWSweather.com
Personal Weather Stations
Station Observations
MAKAWAOWX1
Up Country Maui, Makawao, HI 96768

Up Country MauiMakawao, HI 96768

Lat: 20.856944, Lon: -156.3149667

Elevation: 1500

Station Type: Davis Vantage Pro

Latest ConditionsUpdated 6:20:36 PM HST Tuesday, Sep 1, 2015
Currently Today's Max Today's Min Today's Average
Temperature 78.8°F26.0°C 88.1°F31.2°C 69.5°F20.8°C 78.3°F25.7°C
Dew Point 73.6°F23.1°C 77.5°F25.3°C 67.7°F19.8°C 72.2°F22.3°C
Winds 8.0 mph SW12.9 kmh SW 10.0 mph WSW16.1 kmh WSW - 2.2 mph 3.5 kmh
Wind Gusts 12.0 mph19.3 kmh 13.0 mph20.9 kmh - -
Humidity 84% 97% 60% 83%
Pressure 29.71 in1006.1 mb 29.80 in1009.1 mb 29.69 in1005.4 mb -
Precipitation - 0.02 in0.5 mm - -
Hour Temp Dew Point Humidity Winds Wind Gusts Pressure Precip Precip Rate Daily Precip Total
06:20 PM 78.8°F26.0°C 73.6°F23.1°C 84% 8.0 mph SW12.9 kmh SW 12.0 mph19.3 kmh 29.71 in1006.1 mb - 0.00 in0.0 mm 0.02 in0.5 mm
06:10 PM 79.5°F26.4°C 73.9°F23.3°C 83% 8.4 mph SW13.5 kmh SW 11.0 mph17.7 kmh 29.71 in1006.1 mb - 0.00 in0.0 mm 0.02 in0.5 mm
06:00 PM 80.1°F26.7°C 74.5°F23.6°C 83% 9.9 mph SW15.9 kmh SW 12.0 mph19.3 kmh 29.71 in1006.1 mb - 0.00 in0.0 mm 0.02 in0.5 mm
05:50 PM 80.8°F27.1°C 74.8°F23.8°C 82% 2.8 mph SW4.5 kmh SW 6.0 mph9.7 kmh 29.71 in1006.1 mb - 0.00 in0.0 mm 0.02 in0.5 mm
05:40 PM 81.7°F27.6°C 74.6°F23.7°C 79% 9.2 mph WSW14.8 kmh WSW 9.0 mph14.5 kmh 29.70 in1005.8 mb - 0.00 in0.0 mm 0.02 in0.5 mm
05:30 PM 83.0°F28.3°C 74.6°F23.7°C 76% 8.0 mph WSW12.9 kmh WSW 12.0 mph19.3 kmh 29.70 in1005.8 mb - 0.00 in0.0 mm 0.02 in0.5 mm
05:20 PM 83.3°F28.5°C 74.2°F23.4°C 74% 8.8 mph SW14.2 kmh SW 11.0 mph17.7 kmh 29.70 in1005.8 mb - 0.00 in0.0 mm 0.02 in0.5 mm
05:10 PM 84.3°F29.1°C 73.4°F23.0°C 70% 7.9 mph SW12.7 kmh SW 11.0 mph17.7 kmh 29.70 in1005.8 mb - 0.00 in0.0 mm 0.02 in0.5 mm
05:00 PM 85.4°F29.7°C 71.8°F22.1°C 64% 7.8 mph WSW12.6 kmh WSW 9.0 mph14.5 kmh 29.70 in1005.8 mb - 0.00 in0.0 mm 0.02 in0.5 mm
04:50 PM 86.0°F30.0°C 72.8°F22.7°C 65% 7.1 mph SW11.4 kmh SW 10.0 mph16.1 kmh 29.69 in1005.4 mb - 0.00 in0.0 mm 0.02 in0.5 mm
04:40 PM 86.1°F30.1°C 73.0°F22.8°C 65% 3.4 mph WSW5.5 kmh WSW 6.0 mph9.7 kmh 29.69 in1005.4 mb - 0.00 in0.0 mm 0.02 in0.5 mm
04:30 PM 86.6°F30.3°C 71.5°F21.9°C 61% 7.2 mph WSW11.6 kmh WSW 10.0 mph16.1 kmh 29.69 in1005.4 mb - 0.00 in0.0 mm 0.02 in0.5 mm
04:20 PM 86.9°F30.5°C 71.3°F21.8°C 60% 6.6 mph WSW10.6 kmh WSW 8.0 mph12.9 kmh 29.69 in1005.4 mb - 0.00 in0.0 mm 0.02 in0.5 mm
04:10 PM 87.1°F30.6°C 72.0°F22.2°C 61% 6.8 mph WSW10.9 kmh WSW 9.0 mph14.5 kmh 29.69 in1005.4 mb - 0.00 in0.0 mm 0.02 in0.5 mm
04:00 PM 87.2°F30.7°C 73.1°F22.8°C 63% 6.9 mph WSW11.1 kmh WSW 11.0 mph17.7 kmh 29.69 in1005.4 mb - 0.00 in0.0 mm 0.02 in0.5 mm
03:50 PM 86.8°F30.4°C 71.2°F21.8°C 60% 6.2 mph SW10.0 kmh SW 9.0 mph14.5 kmh 29.69 in1005.4 mb - 0.00 in0.0 mm 0.02 in0.5 mm
03:40 PM 87.2°F30.7°C 72.1°F22.3°C 61% 9.0 mph SW14.5 kmh SW 11.0 mph17.7 kmh 29.69 in1005.4 mb - 0.00 in0.0 mm 0.02 in0.5 mm
03:30 PM 87.4°F30.8°C 73.2°F22.9°C 63% 4.7 mph SW7.6 kmh SW 5.0 mph8.0 kmh 29.69 in1005.4 mb - 0.00 in0.0 mm 0.02 in0.5 mm
03:20 PM 87.4°F30.8°C 72.8°F22.7°C 62% 6.8 mph W10.9 kmh W 8.0 mph12.9 kmh 29.69 in1005.4 mb - 0.00 in0.0 mm 0.02 in0.5 mm
03:10 PM 87.3°F30.7°C 73.6°F23.1°C 64% 7.5 mph WSW12.1 kmh WSW 9.0 mph14.5 kmh 29.69 in1005.4 mb - 0.00 in0.0 mm 0.02 in0.5 mm
03:00 PM 87.6°F30.9°C 73.5°F23.1°C 63% 6.8 mph WSW10.9 kmh WSW 13.0 mph20.9 kmh 29.70 in1005.8 mb - 0.00 in0.0 mm 0.02 in0.5 mm
02:50 PM 87.7°F30.9°C 74.5°F23.6°C 65% 7.8 mph WSW12.6 kmh WSW 12.0 mph19.3 kmh 29.70 in1005.8 mb - 0.00 in0.0 mm 0.02 in0.5 mm
02:40 PM 87.8°F31.0°C 73.6°F23.1°C 63% 10.0 mph WSW16.1 kmh WSW 13.0 mph20.9 kmh 29.70 in1005.8 mb - 0.00 in0.0 mm 0.02 in0.5 mm
02:30 PM 87.3°F30.7°C 75.4°F24.1°C 68% 8.6 mph WSW13.8 kmh WSW 11.0 mph17.7 kmh 29.70 in1005.8 mb - 0.00 in0.0 mm 0.02 in0.5 mm
02:20 PM 84.9°F29.4°C 76.1°F24.5°C 75% 0.8 mph WSW1.3 kmh WSW 1.0 mph1.6 kmh 29.70 in1005.8 mb - 0.00 in0.0 mm 0.02 in0.5 mm
02:10 PM 86.6°F30.3°C 74.8°F23.8°C 68% 4.4 mph W7.1 kmh W 10.0 mph16.1 kmh 29.70 in1005.8 mb - 0.00 in0.0 mm 0.02 in0.5 mm
02:00 PM 87.7°F30.9°C 77.5°F25.3°C 72% 1.1 mph W1.8 kmh W 6.0 mph9.7 kmh 29.71 in1006.1 mb - 0.00 in0.0 mm 0.02 in0.5 mm
01:40 PM 88.1°F31.2°C 76.6°F24.8°C 69% 0.8 mph NW1.3 kmh NW 7.0 mph11.3 kmh 29.71 in1006.1 mb - 0.00 in0.0 mm 0.02 in0.5 mm
01:30 PM 88.0°F31.1°C 76.5°F24.7°C 69% 2.0 mph NW3.2 kmh NW 3.0 mph4.8 kmh 29.72 in1006.4 mb - 0.00 in0.0 mm 0.02 in0.5 mm
01:20 PM 87.9°F31.1°C 75.1°F23.9°C 66% 4.2 mph NW6.8 kmh NW 6.0 mph9.7 kmh 29.72 in1006.4 mb - 0.00 in0.0 mm 0.02 in0.5 mm
01:10 PM 87.6°F30.9°C 75.3°F24.1°C 67% 0.9 mph WNW1.4 kmh WNW 6.0 mph9.7 kmh 29.72 in1006.4 mb - 0.00 in0.0 mm 0.02 in0.5 mm
01:00 PM 87.4°F30.8°C 74.7°F23.7°C 66% 3.9 mph WNW6.3 kmh WNW 6.0 mph9.7 kmh 29.73 in1006.8 mb - 0.00 in0.0 mm 0.02 in0.5 mm
12:50 PM 86.7°F30.4°C 74.0°F23.3°C 66% Calm Calm -- 29.74 in1007.1 mb - 0.00 in0.0 mm 0.02 in0.5 mm
12:40 PM 86.5°F30.3°C 74.2°F23.4°C 67% 4.3 mph NW6.9 kmh NW 9.0 mph14.5 kmh 29.74 in1007.1 mb - 0.00 in0.0 mm 0.02 in0.5 mm
12:30 PM 86.3°F30.2°C 74.1°F23.4°C 67% 0.4 mph NW0.6 kmh NW 4.0 mph6.4 kmh 29.75 in1007.5 mb - 0.00 in0.0 mm 0.02 in0.5 mm
12:20 PM 86.1°F30.1°C 74.3°F23.5°C 68% 1.5 mph NW2.4 kmh NW -- 29.75 in1007.5 mb - 0.00 in0.0 mm 0.02 in0.5 mm
12:10 PM 85.9°F29.9°C 75.0°F23.9°C 70% 2.1 mph NW3.4 kmh NW 7.0 mph11.3 kmh 29.75 in1007.5 mb - 0.00 in0.0 mm 0.02 in0.5 mm
12:00 PM 85.9°F29.9°C 75.0°F23.9°C 70% 5.8 mph NW9.3 kmh NW 9.0 mph14.5 kmh 29.76 in1007.8 mb - 0.00 in0.0 mm 0.02 in0.5 mm
11:50 AM 85.5°F29.7°C 74.2°F23.4°C 69% 3.0 mph WNW4.8 kmh WNW 6.0 mph9.7 kmh 29.76 in1007.8 mb - 0.00 in0.0 mm 0.02 in0.5 mm
11:40 AM 85.0°F29.4°C 74.6°F23.7°C 71% 5.2 mph W8.4 kmh W 7.0 mph11.3 kmh 29.76 in1007.8 mb - 0.00 in0.0 mm 0.02 in0.5 mm
11:30 AM 84.1°F28.9°C 72.8°F22.7°C 69% 3.2 mph NW5.1 kmh NW 7.0 mph11.3 kmh 29.77 in1008.1 mb - 0.00 in0.0 mm 0.02 in0.5 mm
11:20 AM 84.0°F28.9°C 72.7°F22.6°C 69% 1.2 mph NNW1.9 kmh NNW 1.0 mph1.6 kmh 29.77 in1008.1 mb - 0.00 in0.0 mm 0.02 in0.5 mm
11:10 AM 83.5°F28.6°C 73.6°F23.1°C 72% 1.3 mph NW2.1 kmh NW -- 29.78 in1008.5 mb - 0.00 in0.0 mm 0.02 in0.5 mm
11:00 AM 82.8°F28.2°C 74.5°F23.6°C 76% 0.7 mph NW1.1 kmh NW 7.0 mph11.3 kmh 29.78 in1008.5 mb - 0.00 in0.0 mm 0.02 in0.5 mm
10:50 AM 82.6°F28.1°C 74.3°F23.5°C 76% 0.5 mph NW0.8 kmh NW 5.0 mph8.0 kmh 29.78 in1008.5 mb - 0.00 in0.0 mm 0.02 in0.5 mm
10:40 AM 81.4°F27.4°C 73.1°F22.8°C 76% 0.8 mph NNW1.3 kmh NNW 5.0 mph8.0 kmh 29.78 in1008.5 mb - 0.00 in0.0 mm 0.02 in0.5 mm
10:30 AM 81.4°F27.4°C 73.1°F22.8°C 76% 1.0 mph NW1.6 kmh NW 1.0 mph1.6 kmh 29.79 in1008.8 mb - 0.00 in0.0 mm 0.02 in0.5 mm
10:20 AM 79.9°F26.6°C 72.4°F22.4°C 78% 5.4 mph NW8.7 kmh NW 7.0 mph11.3 kmh 29.79 in1008.8 mb - 0.00 in0.0 mm 0.02 in0.5 mm
10:10 AM 80.1°F26.7°C 74.1°F23.4°C 82% 5.2 mph NNW8.4 kmh NNW 7.0 mph11.3 kmh 29.79 in1008.8 mb - 0.00 in0.0 mm 0.02 in0.5 mm
10:00 AM 79.7°F26.5°C 73.7°F23.2°C 82% 1.1 mph WNW1.8 kmh WNW -- 29.79 in1008.8 mb - 0.00 in0.0 mm 0.02 in0.5 mm
09:50 AM 78.3°F25.7°C 73.0°F22.8°C 84% Calm Calm -- 29.79 in1008.8 mb - 0.00 in0.0 mm 0.02 in0.5 mm
09:40 AM 78.8°F26.0°C 73.9°F23.3°C 85% 3.6 mph WNW5.8 kmh WNW 6.0 mph9.7 kmh 29.79 in1008.8 mb - 0.00 in0.0 mm 0.02 in0.5 mm
09:30 AM 79.1°F26.2°C 73.9°F23.3°C 84% Calm Calm -- 29.79 in1008.8 mb - 0.00 in0.0 mm 0.02 in0.5 mm
09:20 AM 79.9°F26.6°C 74.6°F23.7°C 84% 0.5 mph NW0.8 kmh NW 4.0 mph6.4 kmh 29.78 in1008.5 mb - 0.00 in0.0 mm 0.02 in0.5 mm
09:10 AM 79.5°F26.4°C 73.2°F22.9°C 81% Calm Calm -- 29.78 in1008.5 mb - 0.00 in0.0 mm 0.02 in0.5 mm
09:00 AM 78.9°F26.1°C 73.6°F23.1°C 84% 0.1 mph WNW0.2 kmh WNW -- 29.78 in1008.5 mb - 0.00 in0.0 mm 0.02 in0.5 mm
08:50 AM 77.7°F25.4°C 72.8°F22.7°C 85% Calm Calm -- 29.78 in1008.5 mb - 0.00 in0.0 mm 0.02 in0.5 mm
08:40 AM 77.1°F25.1°C 72.9°F22.7°C 87% Calm Calm -- 29.78 in1008.5 mb - 0.00 in0.0 mm 0.02 in0.5 mm
08:30 AM 76.6°F24.8°C 72.8°F22.7°C 88% Calm Calm -- 29.78 in1008.5 mb - 0.00 in0.0 mm 0.02 in0.5 mm
08:20 AM 76.0°F24.4°C 72.5°F22.5°C 89% Calm Calm -- 29.77 in1008.1 mb - 0.00 in0.0 mm 0.02 in0.5 mm
08:10 AM 75.1°F23.9°C 72.3°F22.4°C 91% Calm Calm -- 29.78 in1008.5 mb - 0.00 in0.0 mm 0.02 in0.5 mm
08:00 AM 73.8°F23.2°C 72.0°F22.2°C 94% Calm Calm -- 29.78 in1008.5 mb - 0.00 in0.0 mm 0.02 in0.5 mm
07:50 AM 73.0°F22.8°C 71.2°F21.8°C 94% Calm Calm -- 29.78 in1008.5 mb - 0.00 in0.0 mm 0.02 in0.5 mm
07:40 AM 72.3°F22.4°C 70.5°F21.4°C 94% Calm Calm -- 29.77 in1008.1 mb - 0.00 in0.0 mm 0.02 in0.5 mm
07:30 AM 71.6°F22.0°C 70.1°F21.2°C 95% Calm Calm -- 29.77 in1008.1 mb - 0.00 in0.0 mm 0.02 in0.5 mm
07:20 AM 70.9°F21.6°C 69.4°F20.8°C 95% Calm Calm -- 29.77 in1008.1 mb - 0.00 in0.0 mm 0.02 in0.5 mm
07:10 AM 70.0°F21.1°C 68.5°F20.3°C 95% Calm Calm -- 29.77 in1008.1 mb - 0.00 in0.0 mm 0.02 in0.5 mm
07:00 AM 69.7°F20.9°C 68.2°F20.1°C 95% Calm Calm -- 29.76 in1007.8 mb - 0.00 in0.0 mm 0.02 in0.5 mm
06:50 AM 69.5°F20.8°C 67.7°F19.8°C 94% Calm Calm -- 29.76 in1007.8 mb - 0.00 in0.0 mm 0.02 in0.5 mm
06:40 AM 69.7°F20.9°C 68.2°F20.1°C 95% Calm Calm -- 29.76 in1007.8 mb - 0.00 in0.0 mm 0.02 in0.5 mm
06:30 AM 69.9°F21.1°C 68.4°F20.2°C 95% Calm Calm -- 29.75 in1007.5 mb - 0.00 in0.0 mm 0.02 in0.5 mm
06:20 AM 70.2°F21.2°C 69.0°F20.6°C 96% Calm Calm -- 29.75 in1007.5 mb - 0.00 in0.0 mm 0.02 in0.5 mm
06:10 AM 70.4°F21.3°C 68.9°F20.5°C 95% Calm Calm -- 29.74 in1007.1 mb - 0.00 in0.0 mm 0.02 in0.5 mm
06:00 AM 70.7°F21.5°C 69.5°F20.8°C 96% Calm Calm -- 29.74 in1007.1 mb - 0.00 in0.0 mm 0.02 in0.5 mm
05:50 AM 71.0°F21.7°C 69.8°F21.0°C 96% Calm Calm -- 29.74 in1007.1 mb - 0.00 in0.0 mm 0.02 in0.5 mm
05:40 AM 71.3°F21.8°C 70.1°F21.2°C 96% Calm Calm -- 29.74 in1007.1 mb - 0.00 in0.0 mm 0.02 in0.5 mm
05:30 AM 71.3°F21.8°C 70.1°F21.2°C 96% Calm Calm -- 29.75 in1007.5 mb - 0.00 in0.0 mm 0.02 in0.5 mm
05:20 AM 71.2°F21.8°C 70.3°F21.3°C 97% Calm Calm -- 29.75 in1007.5 mb - 0.00 in0.0 mm 0.02 in0.5 mm
05:10 AM 71.0°F21.7°C 70.1°F21.2°C 97% Calm Calm -- 29.75 in1007.5 mb - 0.00 in0.0 mm 0.02 in0.5 mm
05:00 AM 70.8°F21.6°C 69.9°F21.1°C 97% Calm Calm -- 29.75 in1007.5 mb - 0.00 in0.0 mm 0.02 in0.5 mm
04:50 AM 70.4°F21.3°C 69.2°F20.7°C 96% Calm Calm -- 29.75 in1007.5 mb - 0.00 in0.0 mm 0.02 in0.5 mm
04:40 AM 70.1°F21.2°C 68.9°F20.5°C 96% Calm Calm -- 29.75 in1007.5 mb - 0.00 in0.0 mm 0.02 in0.5 mm
04:30 AM 70.1°F21.2°C 68.6°F20.3°C 95% Calm Calm -- 29.75 in1007.5 mb - 0.00 in0.0 mm 0.02 in0.5 mm
04:20 AM 70.1°F21.2°C 68.9°F20.5°C 96% Calm Calm -- 29.75 in1007.5 mb - 0.00 in0.0 mm 0.02 in0.5 mm
04:10 AM 70.0°F21.1°C 68.5°F20.3°C 95% Calm Calm -- 29.75 in1007.5 mb - 0.00 in0.0 mm 0.02 in0.5 mm
04:00 AM 70.0°F21.1°C 68.5°F20.3°C 95% Calm Calm -- 29.75 in1007.5 mb - 0.00 in0.0 mm 0.02 in0.5 mm
03:50 AM 70.2°F21.2°C 68.7°F20.4°C 95% Calm Calm -- 29.75 in1007.5 mb - 0.00 in0.0 mm 0.02 in0.5 mm
03:40 AM 70.4°F21.3°C 69.2°F20.7°C 96% Calm Calm -- 29.75 in1007.5 mb - 0.00 in0.0 mm 0.02 in0.5 mm
03:30 AM 70.6°F21.4°C 69.4°F20.8°C 96% 0.5 mph NE0.8 kmh NE -- 29.75 in1007.5 mb - 0.00 in0.0 mm 0.02 in0.5 mm
03:20 AM 70.7°F21.5°C 69.5°F20.8°C 96% Calm Calm -- 29.75 in1007.5 mb - 0.00 in0.0 mm 0.02 in0.5 mm
03:10 AM 71.0°F21.7°C 69.5°F20.8°C 95% Calm Calm -- 29.75 in1007.5 mb - 0.00 in0.0 mm 0.02 in0.5 mm
03:00 AM 71.4°F21.9°C 70.2°F21.2°C 96% 0.1 mph NE0.2 kmh NE 1.0 mph1.6 kmh 29.75 in1007.5 mb - 0.00 in0.0 mm 0.02 in0.5 mm
02:50 AM 71.7°F22.1°C 70.5°F21.4°C 96% Calm Calm -- 29.76 in1007.8 mb - 0.00 in0.0 mm 0.02 in0.5 mm
02:40 AM 71.7°F22.1°C 70.5°F21.4°C 96% Calm Calm -- 29.76 in1007.8 mb - 0.00 in0.0 mm 0.02 in0.5 mm
02:30 AM 71.9°F22.2°C 70.7°F21.5°C 96% Calm Calm -- 29.76 in1007.8 mb - 0.00 in0.0 mm 0.02 in0.5 mm
02:20 AM 72.1°F22.3°C 70.9°F21.6°C 96% Calm Calm -- 29.76 in1007.8 mb - 0.00 in0.0 mm 0.02 in0.5 mm
02:10 AM 72.5°F22.5°C 71.3°F21.8°C 96% Calm Calm -- 29.77 in1008.1 mb - 0.00 in0.0 mm 0.02 in0.5 mm
02:00 AM 72.7°F22.6°C 71.5°F21.9°C 96% Calm Calm -- 29.77 in1008.1 mb - 0.00 in0.0 mm 0.02 in0.5 mm
01:50 AM 72.7°F22.6°C 71.5°F21.9°C 96% Calm Calm -- 29.77 in1008.1 mb - 0.00 in0.0 mm 0.02 in0.5 mm
01:40 AM 72.7°F22.6°C 71.5°F21.9°C 96% Calm Calm -- 29.77 in1008.1 mb - 0.00 in0.0 mm 0.02 in0.5 mm
01:30 AM 73.0°F22.8°C 71.8°F22.1°C 96% Calm Calm -- 29.78 in1008.5 mb - 0.00 in0.0 mm 0.02 in0.5 mm
01:20 AM 73.1°F22.8°C 71.9°F22.2°C 96% Calm Calm -- 29.78 in1008.5 mb - 0.00 in0.0 mm 0.02 in0.5 mm
01:10 AM 73.1°F22.8°C 71.9°F22.2°C 96% Calm Calm -- 29.78 in1008.5 mb - 0.00 in0.0 mm 0.02 in0.5 mm
01:00 AM 73.1°F22.8°C 71.9°F22.2°C 96% Calm Calm -- 29.79 in1008.8 mb - 0.00 in0.0 mm 0.02 in0.5 mm
12:50 AM 73.3°F22.9°C 72.1°F22.3°C 96% Calm Calm 1.0 mph1.6 kmh 29.79 in1008.8 mb - 0.00 in0.0 mm 0.02 in0.5 mm
12:40 AM 73.5°F23.1°C 72.3°F22.4°C 96% 1.1 mph NE1.8 kmh NE 5.0 mph8.0 kmh 29.79 in1008.8 mb - 0.01 in0.3 mm 0.02 in0.5 mm
12:30 AM 73.5°F23.1°C 72.3°F22.4°C 96% Calm Calm -- 29.80 in1009.1 mb - 0.01 in0.3 mm 0.02 in0.5 mm
12:20 AM 73.4°F23.0°C 72.2°F22.3°C 96% Calm Calm -- 29.80 in1009.1 mb - 0.01 in0.3 mm 0.01 in0.3 mm
12:10 AM 73.4°F23.0°C 72.2°F22.3°C 96% Calm Calm -- 29.80 in1009.1 mb - 0.00 in0.0 mm 0.00 in0.0 mm
12:00 AM 73.5°F23.1°C 72.3°F22.4°C 96% 0.1 mph NE0.2 kmh NE -- 29.80 in1009.1 mb - 0.00 in0.0 mm 0.00 in0.0 mm